createdAt,value
2022-11-08T00:02:06.764Z,3.29
2022-11-08T00:05:28.553Z,3.30
2022-11-08T00:08:50.281Z,3.31
2022-11-08T00:12:12.009Z,3.33
2022-11-08T00:15:15.535Z,3.37
2022-11-08T00:18:19.241Z,3.38
2022-11-08T00:21:23.129Z,3.38
2022-11-08T00:24:27.175Z,3.38
2022-11-08T00:27:30.640Z,3.40
2022-11-08T00:30:34.141Z,3.41
2022-11-08T00:33:37.590Z,3.44
2022-11-08T00:36:40.990Z,3.47
2022-11-08T00:39:44.471Z,3.47
2022-11-08T00:42:47.889Z,3.49
2022-11-08T00:45:51.443Z,3.51
2022-11-08T00:48:54.945Z,3.54
2022-11-08T00:51:58.493Z,3.57
2022-11-08T00:55:01.750Z,3.59
2022-11-08T00:58:05.479Z,3.61
2022-11-08T01:01:14.779Z,3.63
2022-11-08T01:04:19.903Z,3.67
2022-11-08T01:07:23.327Z,3.69
2022-11-08T01:10:26.831Z,3.71
2022-11-08T01:13:30.678Z,3.70
2022-11-08T01:16:34.912Z,3.72
2022-11-08T01:19:38.293Z,3.73
2022-11-08T01:22:42.327Z,3.74
2022-11-08T01:25:48.065Z,3.74
2022-11-08T01:28:52.085Z,3.76
2022-11-08T01:31:55.586Z,3.77
2022-11-08T01:34:58.974Z,3.79
2022-11-08T01:38:03.866Z,3.80
2022-11-08T01:41:08.242Z,3.81
2022-11-08T01:44:16.532Z,3.82
2022-11-08T01:47:19.950Z,3.83
2022-11-08T01:50:23.816Z,3.84
2022-11-08T01:53:29.333Z,3.83
2022-11-08T01:56:33.027Z,3.83
2022-11-08T01:59:40.828Z,3.81
2022-11-08T02:02:47.350Z,3.79
2022-11-08T02:05:50.847Z,3.77
2022-11-08T02:08:54.606Z,3.73
2022-11-08T02:11:59.225Z,3.68
2022-11-08T02:15:02.805Z,3.68
2022-11-08T02:18:06.664Z,3.68
2022-11-08T02:21:14.766Z,3.68
2022-11-08T02:24:18.262Z,3.68
2022-11-08T02:27:21.707Z,3.66
2022-11-08T02:30:25.618Z,3.66
2022-11-08T02:33:29.118Z,3.66
2022-11-08T02:36:32.465Z,3.64
2022-11-08T02:39:35.916Z,3.59
2022-11-08T02:42:39.725Z,3.54
2022-11-08T02:45:43.170Z,3.51
2022-11-08T02:48:46.654Z,3.46
2022-11-08T02:51:51.328Z,3.40
2022-11-08T02:54:54.817Z,3.36
2022-11-08T02:57:58.305Z,3.37
2022-11-08T03:01:01.845Z,3.37
2022-11-08T03:04:06.313Z,3.35
2022-11-08T03:07:09.731Z,3.36
2022-11-08T03:10:14.047Z,3.31
2022-11-08T03:13:17.450Z,3.27
2022-11-08T03:16:21.004Z,3.23
2022-11-08T03:19:24.610Z,3.22
2022-11-08T03:22:28.050Z,3.24
2022-11-08T03:25:31.544Z,3.25
2022-11-08T03:28:35.111Z,3.26
2022-11-08T03:31:38.612Z,3.30
2022-11-08T03:34:42.169Z,3.33
2022-11-08T03:37:51.472Z,3.33
2022-11-08T03:40:54.953Z,3.33
2022-11-08T03:43:58.558Z,3.33
2022-11-08T03:47:02.296Z,3.32
2022-11-08T03:50:08.043Z,3.35
2022-11-08T03:53:11.460Z,3.38
2022-11-08T03:56:14.862Z,3.41
2022-11-08T03:59:18.297Z,3.45
2022-11-08T04:02:21.779Z,3.48
2022-11-08T04:05:25.320Z,3.51
2022-11-08T04:08:29.585Z,3.53
2022-11-08T04:11:51.165Z,3.54
2022-11-08T04:15:18.115Z,3.56
2022-11-08T04:18:39.949Z,3.58
2022-11-08T04:21:45.470Z,3.61
2022-11-08T04:24:48.998Z,3.66
2022-11-08T04:27:52.548Z,3.70
2022-11-08T04:30:58.302Z,3.75
2022-11-08T04:34:01.778Z,3.80
2022-11-08T04:37:05.138Z,3.84
2022-11-08T04:40:11.655Z,3.88
2022-11-08T04:43:15.442Z,3.90
2022-11-08T04:46:20.723Z,3.89
2022-11-08T04:49:24.177Z,3.92
2022-11-08T04:52:27.575Z,3.93
2022-11-08T04:55:31.281Z,3.95
2022-11-08T04:58:36.491Z,3.97
2022-11-08T05:01:40.052Z,3.97
2022-11-08T05:04:43.671Z,3.98
2022-11-08T05:07:47.117Z,3.96
2022-11-08T05:10:50.569Z,3.92
2022-11-08T05:13:54.133Z,3.90
2022-11-08T05:16:57.740Z,3.87
2022-11-08T05:20:19.363Z,3.81
2022-11-08T05:23:25.616Z,3.78
2022-11-08T05:26:29.729Z,3.73
2022-11-08T05:29:34.819Z,3.72
2022-11-08T05:32:39.871Z,3.72
2022-11-08T05:35:43.186Z,3.74
2022-11-08T05:38:46.823Z,3.75
2022-11-08T05:41:50.324Z,3.76
2022-11-08T05:44:53.666Z,3.76
2022-11-08T05:48:03.062Z,3.76
2022-11-08T05:51:07.307Z,3.72
2022-11-08T05:54:12.625Z,3.71
2022-11-08T05:57:19.868Z,3.72
2022-11-08T06:00:25.567Z,3.72
2022-11-08T06:03:29.647Z,3.73
2022-11-08T06:06:33.533Z,3.72
2022-11-08T06:09:36.961Z,3.71
2022-11-08T06:12:40.493Z,3.66
2022-11-08T06:15:43.995Z,3.59
2022-11-08T06:18:47.643Z,3.58
2022-11-08T06:21:51.084Z,3.60
2022-11-08T06:24:54.910Z,3.60
2022-11-08T06:28:00.603Z,3.57
2022-11-08T06:31:04.618Z,3.57
2022-11-08T06:34:08.362Z,3.57
2022-11-08T06:37:11.866Z,3.57
2022-11-08T06:40:15.692Z,3.55
2022-11-08T06:43:20.444Z,3.59
2022-11-08T06:46:24.059Z,3.63
2022-11-08T06:49:27.578Z,3.64
2022-11-08T06:52:31.029Z,3.68
2022-11-08T06:55:35.396Z,3.69
2022-11-08T06:58:38.855Z,3.72
2022-11-08T07:01:45.681Z,3.77
2022-11-08T07:04:49.540Z,3.79
2022-11-08T07:07:53.391Z,3.79
2022-11-08T07:10:56.853Z,3.83
2022-11-08T07:14:00.354Z,3.87
2022-11-08T07:17:03.849Z,3.94
2022-11-08T07:20:10.210Z,3.99
2022-11-08T07:23:13.985Z,4.07
2022-11-08T07:26:17.535Z,4.13
2022-11-08T07:29:21.096Z,4.19
2022-11-08T07:32:24.678Z,4.26
2022-11-08T07:35:28.818Z,4.34
2022-11-08T07:38:32.279Z,4.42
2022-11-08T07:41:36.273Z,4.51
2022-11-08T07:44:39.815Z,4.61
2022-11-08T07:47:43.197Z,4.71
2022-11-08T07:50:47.534Z,4.81
2022-11-08T07:53:50.994Z,4.91
2022-11-08T07:56:54.493Z,5.03
2022-11-08T07:59:58.099Z,5.13
2022-11-08T08:03:02.598Z,5.24
2022-11-08T08:06:06.872Z,5.36
2022-11-08T08:09:10.375Z,5.46
2022-11-08T08:12:14.046Z,5.55
2022-11-08T08:15:17.710Z,5.68
2022-11-08T08:18:21.254Z,5.82
2022-11-08T08:21:24.756Z,5.98
2022-11-08T08:24:28.205Z,6.12
2022-11-08T08:27:31.455Z,6.22
2022-11-08T08:30:34.897Z,6.35
2022-11-08T08:33:38.610Z,6.46
2022-11-08T08:36:42.113Z,6.57
2022-11-08T08:39:46.066Z,6.69
2022-11-08T08:42:49.470Z,6.80
2022-11-08T08:45:53.791Z,6.93
2022-11-08T08:48:57.223Z,7.05
2022-11-08T08:52:00.714Z,7.21
2022-11-08T08:55:04.861Z,7.35
2022-11-08T08:58:08.311Z,7.50
2022-11-08T09:04:36.814Z,7.84
2022-11-08T09:07:40.905Z,7.99
2022-11-08T09:10:44.438Z,8.15
2022-11-08T09:13:47.938Z,8.27
2022-11-08T09:16:51.378Z,8.41
2022-11-08T09:19:57.349Z,8.58
2022-11-08T09:23:03.374Z,8.73
2022-11-08T09:26:07.322Z,8.85
2022-11-08T09:29:10.765Z,8.98
2022-11-08T09:32:14.268Z,9.10
2022-11-08T09:35:17.876Z,9.22
2022-11-08T09:38:22.416Z,9.35
2022-11-08T09:41:43.204Z,9.49
2022-11-08T09:45:02.780Z,9.63
2022-11-08T09:48:16.217Z,9.80
2022-11-08T09:51:22.952Z,9.94
2022-11-08T09:54:31.358Z,10.09
2022-11-08T09:57:45.831Z,10.22
2022-11-08T10:00:50.735Z,10.31
2022-11-08T10:03:57.608Z,10.38
2022-11-08T10:07:14.962Z,10.45
2022-11-08T10:10:48.582Z,10.55
2022-11-08T10:14:05.942Z,10.65
2022-11-08T10:17:31.107Z,10.78
2022-11-08T10:20:45.507Z,10.99
2022-11-08T10:23:57.729Z,11.13
2022-11-08T10:27:02.182Z,11.27
2022-11-08T10:30:26.430Z,11.37
2022-11-08T10:33:34.941Z,11.41
2022-11-08T10:36:41.188Z,11.45
2022-11-08T10:39:54.321Z,11.50
2022-11-08T10:43:09.366Z,11.57
2022-11-08T10:46:26.741Z,11.66
2022-11-08T10:49:32.397Z,11.78
2022-11-08T10:52:40.753Z,11.86
2022-11-08T10:55:50.409Z,11.95
2022-11-08T10:58:53.786Z,12.09
2022-11-08T11:01:57.945Z,12.24
2022-11-08T11:05:26.614Z,12.36
2022-11-08T11:08:30.698Z,12.49
2022-11-08T11:11:37.980Z,12.61
2022-11-08T11:14:41.507Z,12.73
2022-11-08T11:17:47.143Z,12.87
2022-11-08T11:21:07.104Z,12.99
2022-11-08T11:24:19.241Z,13.12
2022-11-08T11:27:29.057Z,13.25
2022-11-08T11:30:33.945Z,13.35
2022-11-08T11:33:45.115Z,13.46
2022-11-08T11:36:55.129Z,13.55
2022-11-08T11:40:13.010Z,13.67
2022-11-08T11:43:23.219Z,13.81
2022-11-08T11:46:41.162Z,13.91
2022-11-08T11:49:47.072Z,13.99
2022-11-08T11:52:50.666Z,14.10
2022-11-08T11:56:12.397Z,14.20
2022-11-08T11:59:51.402Z,14.29
2022-11-08T12:03:22.281Z,14.40
2022-11-08T12:06:38.438Z,14.50
2022-11-08T12:09:59.382Z,14.61
2022-11-08T12:13:12.522Z,14.67
2022-11-08T12:16:23.246Z,14.72
2022-11-08T12:19:38.508Z,14.77
2022-11-08T12:22:54.713Z,14.83
2022-11-08T12:26:03.636Z,14.89
2022-11-08T12:29:23.526Z,14.96
2022-11-08T12:32:52.589Z,15.03
2022-11-08T12:36:11.484Z,15.07
2022-11-08T12:39:24.304Z,15.10
2022-11-08T12:42:53.281Z,15.15
2022-11-08T12:46:09.951Z,15.18
2022-11-08T12:49:27.544Z,15.20
2022-11-08T12:52:47.944Z,15.25
2022-11-08T12:55:55.362Z,15.27
2022-11-08T12:58:59.506Z,15.29
2022-11-08T13:02:04.909Z,15.31
2022-11-08T13:05:13.063Z,15.33
2022-11-08T13:08:25.418Z,15.34
2022-11-08T13:11:37.315Z,15.34
2022-11-08T13:14:41.629Z,15.35
2022-11-08T13:18:32.421Z,15.34
2022-11-08T13:21:38.613Z,15.33
2022-11-08T13:24:45.111Z,15.30
2022-11-08T13:27:49.873Z,15.26
2022-11-08T13:31:02.123Z,15.22
2022-11-08T13:34:19.754Z,15.16
2022-11-08T13:37:47.318Z,15.11
2022-11-08T13:41:15.859Z,15.05
2022-11-08T13:45:02.622Z,14.98
2022-11-08T13:48:34.885Z,14.92
2022-11-08T13:51:39.525Z,14.88
2022-11-08T13:54:53.175Z,14.83
2022-11-08T13:57:59.190Z,14.78
2022-11-08T14:01:02.405Z,14.74
2022-11-08T14:04:24.121Z,14.70
2022-11-08T14:07:33.138Z,14.66
2022-11-08T14:10:47.639Z,14.60
2022-11-08T14:14:20.636Z,14.55
2022-11-08T14:17:33.966Z,14.52
2022-11-08T14:20:40.921Z,14.46
2022-11-08T14:23:47.466Z,14.39
2022-11-08T14:26:51.431Z,14.31
2022-11-08T14:30:00.698Z,14.23
2022-11-08T14:33:08.093Z,14.14
2022-11-08T14:36:16.587Z,14.05
2022-11-08T14:39:24.771Z,13.95
2022-11-08T14:42:28.080Z,13.84
2022-11-08T14:45:31.690Z,13.72
2022-11-08T14:48:35.140Z,13.61
2022-11-08T14:51:38.767Z,13.51
2022-11-08T14:54:44.414Z,13.38
2022-11-08T14:57:48.138Z,13.25
2022-11-08T15:00:51.922Z,13.13
2022-11-08T15:03:58.206Z,13.02
2022-11-08T15:07:01.636Z,12.89
2022-11-08T15:10:10.147Z,12.79
2022-11-08T15:13:13.694Z,12.67
2022-11-08T15:16:17.980Z,12.52
2022-11-08T15:19:30.100Z,12.35
2022-11-08T15:22:34.547Z,12.16
2022-11-08T15:25:38.834Z,12.00
2022-11-08T15:28:42.361Z,11.87
2022-11-08T15:31:56.977Z,11.75
2022-11-08T15:35:06.674Z,11.63
2022-11-08T15:38:30.279Z,11.53
2022-11-08T15:41:37.639Z,11.39
2022-11-08T15:45:02.037Z,11.25
2022-11-08T15:48:21.878Z,11.12
2022-11-08T15:51:25.558Z,10.99
2022-11-08T15:54:29.078Z,10.92
2022-11-08T15:57:32.840Z,10.87
2022-11-08T16:00:37.725Z,10.79
2022-11-08T16:03:41.324Z,10.71
2022-11-08T16:06:44.812Z,10.61
2022-11-08T16:09:48.290Z,10.47
2022-11-08T16:12:51.832Z,10.33
2022-11-08T16:15:55.785Z,10.21
2022-11-08T16:18:59.446Z,10.10
2022-11-08T16:22:06.840Z,10.00
2022-11-08T16:25:10.705Z,9.91
2022-11-08T16:28:19.993Z,9.85
2022-11-08T16:31:23.748Z,9.76
2022-11-08T16:34:27.293Z,9.70
2022-11-08T16:37:30.999Z,9.63
2022-11-08T16:40:34.434Z,9.56
2022-11-08T16:43:38.003Z,9.49
2022-11-08T16:46:42.336Z,9.43
2022-11-08T16:49:51.087Z,9.35
2022-11-08T16:52:54.961Z,9.22
2022-11-08T16:55:58.458Z,9.12
2022-11-08T16:59:01.902Z,9.05
2022-11-08T17:02:13.041Z,8.96
2022-11-08T17:05:18.143Z,8.87
2022-11-08T17:08:21.891Z,8.80
2022-11-08T17:11:25.669Z,8.75
2022-11-08T17:14:29.093Z,8.67
2022-11-08T17:17:32.602Z,8.58
2022-11-08T17:20:36.853Z,8.50
2022-11-08T17:23:40.417Z,8.41
2022-11-08T17:26:43.965Z,8.34
2022-11-08T17:29:47.477Z,8.29
2022-11-08T17:32:50.929Z,8.26
2022-11-08T17:35:54.423Z,8.22
2022-11-08T17:38:57.864Z,8.15
2022-11-08T17:42:01.209Z,8.07
2022-11-08T17:45:05.825Z,8.01
2022-11-08T17:48:09.351Z,8.00
2022-11-08T17:51:14.704Z,7.95
2022-11-08T17:54:18.756Z,7.89
2022-11-08T17:57:22.213Z,7.86
2022-11-08T18:00:25.688Z,7.81
2022-11-08T18:03:29.077Z,7.76
2022-11-08T18:06:32.866Z,7.71
2022-11-08T18:09:36.444Z,7.65
2022-11-08T18:12:39.871Z,7.58
2022-11-08T18:15:43.587Z,7.49
2022-11-08T18:18:48.195Z,7.41
2022-11-08T18:21:51.963Z,7.33
2022-11-08T18:24:55.515Z,7.29
2022-11-08T18:27:58.993Z,7.24
2022-11-08T18:31:07.433Z,7.19
2022-11-08T18:34:10.943Z,7.15
2022-11-08T18:37:14.331Z,7.10
2022-11-08T18:40:18.603Z,7.06
2022-11-08T18:43:22.038Z,7.03
2022-11-08T18:46:27.385Z,6.97
2022-11-08T18:49:30.956Z,6.90
2022-11-08T18:52:34.456Z,6.89
2022-11-08T18:55:37.764Z,6.87
2022-11-08T18:58:43.302Z,6.80
2022-11-08T19:01:46.803Z,6.76
2022-11-08T19:04:50.315Z,6.71
2022-11-08T19:07:53.804Z,6.61
2022-11-08T19:10:59.893Z,6.53
2022-11-08T19:14:03.776Z,6.44
2022-11-08T19:17:07.671Z,6.38
2022-11-08T19:20:12.770Z,6.30
2022-11-08T19:23:16.458Z,6.23
2022-11-08T19:26:21.591Z,6.19
2022-11-08T19:29:25.176Z,6.15
2022-11-08T19:32:28.700Z,6.11
2022-11-08T19:35:32.180Z,6.07
2022-11-08T19:38:36.450Z,6.02
2022-11-08T19:41:40.307Z,6.01
2022-11-08T19:44:43.808Z,5.99
2022-11-08T19:47:49.975Z,5.97
2022-11-08T19:50:54.494Z,5.94
2022-11-08T19:53:59.173Z,5.91
2022-11-08T19:57:04.776Z,5.87
2022-11-08T20:00:12.654Z,5.81
2022-11-08T20:03:15.946Z,5.75
2022-11-08T20:06:21.287Z,5.72
2022-11-08T20:09:30.037Z,5.70
2022-11-08T20:12:33.958Z,5.65
2022-11-08T20:15:37.461Z,5.60
2022-11-08T20:18:41.436Z,5.58
2022-11-08T20:21:45.574Z,5.52
2022-11-08T20:24:48.989Z,5.46
2022-11-08T20:27:52.638Z,5.43
2022-11-08T20:31:03.255Z,5.40
2022-11-08T20:34:10.028Z,5.34
2022-11-08T20:37:14.094Z,5.30
2022-11-08T20:40:17.894Z,5.27
2022-11-08T20:43:21.790Z,5.22
2022-11-08T20:46:25.448Z,5.21
2022-11-08T20:49:28.879Z,5.18
2022-11-08T20:52:32.380Z,5.13
2022-11-08T20:55:35.989Z,5.07
2022-11-08T20:58:40.612Z,5.04
2022-11-08T21:01:44.280Z,5.01
2022-11-08T21:04:47.822Z,4.96
2022-11-08T21:08:57.210Z,4.90
2022-11-08T21:11:15.197Z,4.85
2022-11-08T21:14:19.334Z,4.79
2022-11-08T21:17:23.084Z,4.78
2022-11-08T21:20:26.811Z,4.76
2022-11-08T21:23:31.693Z,4.74
2022-11-08T21:26:36.456Z,4.72
2022-11-08T21:29:40.509Z,4.70
2022-11-08T21:32:43.805Z,4.69
2022-11-08T21:35:50.138Z,4.67
2022-11-08T21:38:52.548Z,4.60
2022-11-08T21:41:55.744Z,4.53
2022-11-08T21:44:58.836Z,4.45
2022-11-08T21:48:01.889Z,4.35
2022-11-08T21:51:05.724Z,4.31
2022-11-08T21:54:09.037Z,4.25
2022-11-08T21:57:12.125Z,4.21
2022-11-08T22:00:17.059Z,4.16
2022-11-08T22:03:20.253Z,4.11
2022-11-08T22:06:23.446Z,4.10
2022-11-08T22:09:26.539Z,4.09
2022-11-08T22:12:29.631Z,4.06
2022-11-08T22:15:32.826Z,4.03
2022-11-08T22:18:58.685Z,3.99
2022-11-08T22:21:59.080Z,3.96
2022-11-08T22:25:02.276Z,3.89
2022-11-08T22:28:06.089Z,3.86
2022-11-08T22:31:09.176Z,3.81
2022-11-08T22:34:12.604Z,3.72
2022-11-08T22:37:15.768Z,3.68
2022-11-08T22:40:19.274Z,3.62
2022-11-08T22:43:22.361Z,3.55
2022-11-08T22:46:25.556Z,3.49
2022-11-08T22:49:29.160Z,3.42
2022-11-08T22:52:32.563Z,3.39
2022-11-08T22:55:35.754Z,3.35
2022-11-08T22:58:39.382Z,3.29
2022-11-08T23:01:42.553Z,3.25
2022-11-08T23:04:45.644Z,3.22
2022-11-08T23:07:48.735Z,3.20
2022-11-08T23:11:10.464Z,3.16
2022-11-08T23:14:37.108Z,3.13
2022-11-08T23:17:40.918Z,3.08
2022-11-08T23:21:04.796Z,3.04
2022-11-08T23:24:21.520Z,3.01
2022-11-08T23:27:43.750Z,3.01
2022-11-08T23:31:05.577Z,2.98
2022-11-08T23:34:09.082Z,2.95
2022-11-08T23:37:12.785Z,2.91
2022-11-08T23:40:35.846Z,2.87
2022-11-08T23:43:57.676Z,2.85
2022-11-08T23:47:02.326Z,2.80
2022-11-08T23:50:07.856Z,2.75
2022-11-08T23:53:11.519Z,2.72
2022-11-08T23:56:20.995Z,2.70
2022-11-08T23:59:24.717Z,2.66
